Main page
METAR-TAF:

METAR-TAF

Airports :

Gloucester, England

Gloucestershire Airport

latitude: 51-54N, longitude: 002-10W, elevation: 29 m

Current weather observation

The report was made 1 hour and 3 minutes ago, at 20:50 UTC
Wind 4 kt from the Southwest
Temperature 10°C
Humidity 71%
Pressure 1016 hPa
Visibility 10 km or more
Few clouds at a height of 3000 ft

METAR: EGBJ 282050Z 23004KT 9999 FEW030 10/05 Q1016

Time: 22:53 (21:53 UTC)

Forecast

The report was made 7 hours and 59 minutes ago, at 13:54 UTC
Forecast valid from 28 at 15 UTC to 28 at 19 UTC
Wind 3 kt from variable directions
Visibility 10 km or more
Scattered clouds at a height of 3000 ft

TAF: EGBJ 281354Z 2815/2819 VRB03KT 9999 SCT030

Weather observations and forecasts of more than 4000 airports (METAR and TAF reports).

The available stations are represented by yellow and red dots on the map.

Hover mouse over dot to see the name of the station.

Then click to see weather observations and forecasts.

To change the map : click on the green buttons with a black cross to zoom in, on the green button with a dash to zoom out, or on the green arrows for adjacent maps.


METAR-TAF: